sensor_id;sensor_type;location;lat;lon;timestamp;P1;durP1;ratioP1;P2;durP2;ratioP2
37284;SDS011;23172;53.550;9.964;2024-02-14T00:01:06;1999.90;;;999.90;;
37284;SDS011;23172;53.550;9.964;2024-02-14T00:06:09;1999.90;;;999.90;;
37284;SDS011;23172;53.550;9.964;2024-02-14T00:11:12;1999.90;;;999.90;;
37284;SDS011;23172;53.550;9.964;2024-02-14T00:16:16;1999.90;;;999.90;;
37284;SDS011;23172;53.550;9.964;2024-02-14T00:21:18;1999.90;;;999.90;;
37284;SDS011;23172;53.550;9.964;2024-02-14T00:26:19;1999.90;;;999.90;;
37284;SDS011;23172;53.550;9.964;2024-02-14T00:31:23;1999.90;;;999.90;;
37284;SDS011;23172;53.550;9.964;2024-02-14T00:36:25;1999.90;;;999.90;;
37284;SDS011;23172;53.550;9.964;2024-02-14T00:41:27;1999.90;;;999.90;;
37284;SDS011;23172;53.550;9.964;2024-02-14T00:46:31;1999.90;;;999.90;;
37284;SDS011;23172;53.550;9.964;2024-02-14T00:51:33;1999.90;;;999.90;;
37284;SDS011;23172;53.550;9.964;2024-02-14T00:56:36;1999.90;;;999.90;;
37284;SDS011;23172;53.550;9.964;2024-02-14T01:01:39;1999.90;;;999.90;;
37284;SDS011;23172;53.550;9.964;2024-02-14T01:06:41;1999.90;;;999.90;;
37284;SDS011;23172;53.550;9.964;2024-02-14T01:11:43;1999.90;;;999.90;;
37284;SDS011;23172;53.550;9.964;2024-02-14T01:16:46;1999.90;;;999.90;;
37284;SDS011;23172;53.550;9.964;2024-02-14T01:21:48;1999.90;;;999.90;;
37284;SDS011;23172;53.550;9.964;2024-02-14T01:26:50;1999.90;;;999.90;;
37284;SDS011;23172;53.550;9.964;2024-02-14T01:31:53;1758.28;;;799.28;;
37284;SDS011;23172;53.550;9.964;2024-02-14T01:36:55;1999.90;;;585.30;;
37284;SDS011;23172;53.550;9.964;2024-02-14T01:41:57;1999.90;;;599.45;;
37284;SDS011;23172;53.550;9.964;2024-02-14T01:47:00;1999.90;;;700.50;;
37284;SDS011;23172;53.550;9.964;2024-02-14T01:52:03;1999.90;;;630.00;;
37284;SDS011;23172;53.550;9.964;2024-02-14T01:57:06;1999.90;;;758.75;;
37284;SDS011;23172;53.550;9.964;2024-02-14T02:02:12;1999.90;;;789.72;;
37284;SDS011;23172;53.550;9.964;2024-02-14T02:07:14;1917.78;;;840.10;;
37284;SDS011;23172;53.550;9.964;2024-02-14T02:12:15;1988.55;;;804.25;;
37284;SDS011;23172;53.550;9.964;2024-02-14T02:17:19;1366.85;;;737.33;;
37284;SDS011;23172;53.550;9.964;2024-02-14T02:22:21;1061.18;;;595.60;;
37284;SDS011;23172;53.550;9.964;2024-02-14T02:27:24;804.38;;;445.17;;
37284;SDS011;23172;53.550;9.964;2024-02-14T02:32:26;705.20;;;375.55;;
37284;SDS011;23172;53.550;9.964;2024-02-14T02:37:28;604.05;;;401.80;;
37284;SDS011;23172;53.550;9.964;2024-02-14T02:42:31;715.83;;;411.10;;
37284;SDS011;23172;53.550;9.964;2024-02-14T02:47:34;668.92;;;379.50;;
37284;SDS011;23172;53.550;9.964;2024-02-14T02:52:36;550.25;;;270.05;;
37284;SDS011;23172;53.550;9.964;2024-02-14T02:57:41;686.35;;;324.52;;
37284;SDS011;23172;53.550;9.964;2024-02-14T03:02:45;483.45;;;201.25;;
37284;SDS011;23172;53.550;9.964;2024-02-14T03:07:47;280.40;;;186.68;;
37284;SDS011;23172;53.550;9.964;2024-02-14T03:12:52;545.13;;;277.00;;
37284;SDS011;23172;53.550;9.964;2024-02-14T03:17:55;621.78;;;410.98;;
37284;SDS011;23172;53.550;9.964;2024-02-14T03:22:56;629.30;;;307.15;;
37284;SDS011;23172;53.550;9.964;2024-02-14T03:28:00;402.67;;;190.18;;
37284;SDS011;23172;53.550;9.964;2024-02-14T03:33:04;356.08;;;249.73;;
37284;SDS011;23172;53.550;9.964;2024-02-14T03:38:06;437.42;;;257.85;;
37284;SDS011;23172;53.550;9.964;2024-02-14T03:43:10;393.70;;;201.07;;
37284;SDS011;23172;53.550;9.964;2024-02-14T03:48:12;256.38;;;161.82;;
37284;SDS011;23172;53.550;9.964;2024-02-14T03:53:14;420.42;;;169.30;;
37284;SDS011;23172;53.550;9.964;2024-02-14T03:58:18;325.10;;;186.30;;
37284;SDS011;23172;53.550;9.964;2024-02-14T04:03:22;309.35;;;127.43;;
37284;SDS011;23172;53.550;9.964;2024-02-14T04:08:24;627.40;;;257.40;;
37284;SDS011;23172;53.550;9.964;2024-02-14T04:13:27;222.50;;;117.50;;
37284;SDS011;23172;53.550;9.964;2024-02-14T04:18:29;293.83;;;140.63;;
37284;SDS011;23172;53.550;9.964;2024-02-14T04:23:31;311.00;;;144.82;;
37284;SDS011;23172;53.550;9.964;2024-02-14T04:28:34;414.58;;;190.13;;
37284;SDS011;23172;53.550;9.964;2024-02-14T04:33:36;325.38;;;138.65;;
37284;SDS011;23172;53.550;9.964;2024-02-14T04:38:38;380.55;;;204.05;;
37284;SDS011;23172;53.550;9.964;2024-02-14T04:43:42;279.15;;;125.32;;
37284;SDS011;23172;53.550;9.964;2024-02-14T04:48:44;321.75;;;156.50;;
37284;SDS011;23172;53.550;9.964;2024-02-14T04:53:46;264.40;;;148.23;;
37284;SDS011;23172;53.550;9.964;2024-02-14T04:58:49;321.15;;;140.90;;
37284;SDS011;23172;53.550;9.964;2024-02-14T05:03:51;292.00;;;131.77;;
37284;SDS011;23172;53.550;9.964;2024-02-14T05:08:53;238.07;;;140.98;;
37284;SDS011;23172;53.550;9.964;2024-02-14T05:13:56;190.55;;;116.85;;
37284;SDS011;23172;53.550;9.964;2024-02-14T05:18:58;164.02;;;108.10;;
37284;SDS011;23172;53.550;9.964;2024-02-14T05:24:01;297.23;;;130.90;;
37284;SDS011;23172;53.550;9.964;2024-02-14T05:29:04;278.50;;;113.38;;
37284;SDS011;23172;53.550;9.964;2024-02-14T05:34:06;438.40;;;193.13;;
37284;SDS011;23172;53.550;9.964;2024-02-14T05:39:08;205.82;;;98.35;;
37284;SDS011;23172;53.550;9.964;2024-02-14T05:44:12;207.15;;;96.40;;
37284;SDS011;23172;53.550;9.964;2024-02-14T05:49:14;364.58;;;159.02;;
37284;SDS011;23172;53.550;9.964;2024-02-14T05:54:15;272.80;;;119.40;;
37284;SDS011;23172;53.550;9.964;2024-02-14T05:59:19;344.55;;;146.30;;
37284;SDS011;23172;53.550;9.964;2024-02-14T06:04:21;388.40;;;175.25;;
37284;SDS011;23172;53.550;9.964;2024-02-14T06:09:23;190.90;;;90.68;;
37284;SDS011;23172;53.550;9.964;2024-02-14T06:14:26;219.52;;;86.47;;
37284;SDS011;23172;53.550;9.964;2024-02-14T06:19:29;417.67;;;168.85;;
37284;SDS011;23172;53.550;9.964;2024-02-14T06:24:32;331.73;;;125.40;;
37284;SDS011;23172;53.550;9.964;2024-02-14T06:29:35;265.55;;;127.93;;
37284;SDS011;23172;53.550;9.964;2024-02-14T06:34:37;333.42;;;155.13;;
37284;SDS011;23172;53.550;9.964;2024-02-14T06:39:39;309.17;;;139.05;;
37284;SDS011;23172;53.550;9.964;2024-02-14T06:44:42;122.28;;;55.53;;
37284;SDS011;23172;53.550;9.964;2024-02-14T06:49:44;369.67;;;167.38;;
37284;SDS011;23172;53.550;9.964;2024-02-14T06:54:47;350.98;;;119.63;;
37284;SDS011;23172;53.550;9.964;2024-02-14T06:59:50;298.33;;;109.60;;
37284;SDS011;23172;53.550;9.964;2024-02-14T07:04:52;228.57;;;90.30;;
37284;SDS011;23172;53.550;9.964;2024-02-14T07:09:54;329.35;;;125.45;;
37284;SDS011;23172;53.550;9.964;2024-02-14T07:14:57;194.52;;;88.32;;
37284;SDS011;23172;53.550;9.964;2024-02-14T07:19:59;162.63;;;70.47;;
37284;SDS011;23172;53.550;9.964;2024-02-14T07:25:02;297.63;;;114.22;;
37284;SDS011;23172;53.550;9.964;2024-02-14T07:30:07;233.75;;;88.97;;
37284;SDS011;23172;53.550;9.964;2024-02-14T07:35:09;176.32;;;61.08;;
37284;SDS011;23172;53.550;9.964;2024-02-14T07:40:13;180.43;;;69.20;;
37284;SDS011;23172;53.550;9.964;2024-02-14T07:45:16;194.07;;;65.13;;
37284;SDS011;23172;53.550;9.964;2024-02-14T07:50:18;190.57;;;70.68;;
37284;SDS011;23172;53.550;9.964;2024-02-14T07:55:20;192.60;;;69.57;;
37284;SDS011;23172;53.550;9.964;2024-02-14T08:00:24;287.60;;;113.70;;
37284;SDS011;23172;53.550;9.964;2024-02-14T08:05:29;281.50;;;92.32;;
37284;SDS011;23172;53.550;9.964;2024-02-14T08:10:36;194.02;;;63.25;;
37284;SDS011;23172;53.550;9.964;2024-02-14T08:15:40;178.63;;;48.83;;
37284;SDS011;23172;53.550;9.964;2024-02-14T08:20:42;298.42;;;117.80;;
37284;SDS011;23172;53.550;9.964;2024-02-14T08:25:44;215.70;;;58.40;;
37284;SDS011;23172;53.550;9.964;2024-02-14T08:30:47;165.93;;;78.30;;
37284;SDS011;23172;53.550;9.964;2024-02-14T08:35:49;206.55;;;59.90;;
37284;SDS011;23172;53.550;9.964;2024-02-14T08:40:51;122.82;;;68.20;;
37284;SDS011;23172;53.550;9.964;2024-02-14T08:45:54;222.07;;;57.67;;
37284;SDS011;23172;53.550;9.964;2024-02-14T08:50:56;140.63;;;63.90;;
37284;SDS011;23172;53.550;9.964;2024-02-14T08:55:58;173.25;;;54.28;;
37284;SDS011;23172;53.550;9.964;2024-02-14T09:01:01;121.20;;;49.67;;
37284;SDS011;23172;53.550;9.964;2024-02-14T09:06:03;118.95;;;52.42;;
37284;SDS011;23172;53.550;9.964;2024-02-14T09:11:06;146.40;;;64.47;;
37284;SDS011;23172;53.550;9.964;2024-02-14T09:16:09;208.23;;;74.82;;
37284;SDS011;23172;53.550;9.964;2024-02-14T09:21:13;163.20;;;62.67;;
37284;SDS011;23172;53.550;9.964;2024-02-14T09:26:15;165.23;;;51.65;;
37284;SDS011;23172;53.550;9.964;2024-02-14T09:31:19;237.38;;;61.78;;
37284;SDS011;23172;53.550;9.964;2024-02-14T09:36:21;160.55;;;56.47;;
37284;SDS011;23172;53.550;9.964;2024-02-14T09:41:25;111.30;;;43.42;;
37284;SDS011;23172;53.550;9.964;2024-02-14T09:46:32;150.07;;;80.85;;
37284;SDS011;23172;53.550;9.964;2024-02-14T09:51:37;131.15;;;39.63;;
37284;SDS011;23172;53.550;9.964;2024-02-14T09:56:40;125.72;;;50.60;;
37284;SDS011;23172;53.550;9.964;2024-02-14T10:01:44;100.72;;;35.33;;
37284;SDS011;23172;53.550;9.964;2024-02-14T10:12:45;112.68;;;44.75;;
37284;SDS011;23172;53.550;9.964;2024-02-14T10:17:48;109.43;;;39.63;;
37284;SDS011;23172;53.550;9.964;2024-02-14T10:22:49;78.18;;;38.20;;
37284;SDS011;23172;53.550;9.964;2024-02-14T10:27:51;81.18;;;28.95;;
37284;SDS011;23172;53.550;9.964;2024-02-14T10:32:54;53.20;;;26.80;;
37284;SDS011;23172;53.550;9.964;2024-02-14T10:37:59;53.78;;;36.67;;
37284;SDS011;23172;53.550;9.964;2024-02-14T10:43:03;84.40;;;24.27;;
37284;SDS011;23172;53.550;9.964;2024-02-14T10:48:07;87.05;;;25.75;;
37284;SDS011;23172;53.550;9.964;2024-02-14T10:53:13;83.90;;;24.73;;
37284;SDS011;23172;53.550;9.964;2024-02-14T10:58:15;56.88;;;21.08;;
37284;SDS011;23172;53.550;9.964;2024-02-14T11:03:19;87.07;;;28.95;;
37284;SDS011;23172;53.550;9.964;2024-02-14T11:08:21;73.07;;;20.95;;
37284;SDS011;23172;53.550;9.964;2024-02-14T11:13:25;66.72;;;27.92;;
37284;SDS011;23172;53.550;9.964;2024-02-14T11:18:30;120.53;;;24.35;;
37284;SDS011;23172;53.550;9.964;2024-02-14T11:23:33;71.45;;;22.67;;
37284;SDS011;23172;53.550;9.964;2024-02-14T11:28:36;47.67;;;20.05;;
37284;SDS011;23172;53.550;9.964;2024-02-14T11:33:41;67.38;;;21.83;;
37284;SDS011;23172;53.550;9.964;2024-02-14T11:38:44;50.33;;;18.33;;
37284;SDS011;23172;53.550;9.964;2024-02-14T11:43:50;66.70;;;27.63;;
37284;SDS011;23172;53.550;9.964;2024-02-14T11:48:53;71.68;;;29.02;;
37284;SDS011;23172;53.550;9.964;2024-02-14T11:53:55;94.20;;;23.35;;
37284;SDS011;23172;53.550;9.964;2024-02-14T11:59:04;112.55;;;30.02;;
37284;SDS011;23172;53.550;9.964;2024-02-14T12:04:09;50.33;;;20.55;;
37284;SDS011;23172;53.550;9.964;2024-02-14T12:09:11;54.03;;;20.42;;
37284;SDS011;23172;53.550;9.964;2024-02-14T12:14:13;59.55;;;18.08;;
37284;SDS011;23172;53.550;9.964;2024-02-14T12:19:20;56.50;;;25.55;;
37284;SDS011;23172;53.550;9.964;2024-02-14T12:24:21;64.72;;;15.02;;
37284;SDS011;23172;53.550;9.964;2024-02-14T12:29:24;55.88;;;16.83;;
37284;SDS011;23172;53.550;9.964;2024-02-14T12:34:28;59.95;;;20.83;;
37284;SDS011;23172;53.550;9.964;2024-02-14T12:39:30;46.88;;;19.30;;
37284;SDS011;23172;53.550;9.964;2024-02-14T12:44:32;42.88;;;17.90;;
37284;SDS011;23172;53.550;9.964;2024-02-14T12:49:35;38.28;;;13.55;;
37284;SDS011;23172;53.550;9.964;2024-02-14T12:54:37;77.65;;;28.15;;
37284;SDS011;23172;53.550;9.964;2024-02-14T12:59:39;44.40;;;18.58;;
37284;SDS011;23172;53.550;9.964;2024-02-14T13:04:43;62.38;;;20.20;;
37284;SDS011;23172;53.550;9.964;2024-02-14T13:09:44;71.13;;;19.02;;
37284;SDS011;23172;53.550;9.964;2024-02-14T13:14:47;48.65;;;17.08;;
37284;SDS011;23172;53.550;9.964;2024-02-14T13:19:50;54.08;;;16.85;;
37284;SDS011;23172;53.550;9.964;2024-02-14T13:24:53;40.78;;;14.55;;
37284;SDS011;23172;53.550;9.964;2024-02-14T13:29:56;66.05;;;17.52;;
37284;SDS011;23172;53.550;9.964;2024-02-14T13:34:59;68.63;;;16.35;;
37284;SDS011;23172;53.550;9.964;2024-02-14T13:40:01;118.25;;;37.63;;
37284;SDS011;23172;53.550;9.964;2024-02-14T13:45:04;43.42;;;17.70;;
37284;SDS011;23172;53.550;9.964;2024-02-14T13:50:11;106.53;;;28.00;;
37284;SDS011;23172;53.550;9.964;2024-02-14T13:55:13;56.42;;;18.80;;
37284;SDS011;23172;53.550;9.964;2024-02-14T14:00:15;68.10;;;19.52;;
37284;SDS011;23172;53.550;9.964;2024-02-14T14:05:19;54.97;;;15.70;;
37284;SDS011;23172;53.550;9.964;2024-02-14T14:10:22;63.97;;;15.25;;
37284;SDS011;23172;53.550;9.964;2024-02-14T14:15:25;45.72;;;16.33;;
37284;SDS011;23172;53.550;9.964;2024-02-14T14:20:30;66.22;;;16.13;;
37284;SDS011;23172;53.550;9.964;2024-02-14T14:25:32;31.40;;;13.63;;
37284;SDS011;23172;53.550;9.964;2024-02-14T14:30:34;21.77;;;15.45;;
37284;SDS011;23172;53.550;9.964;2024-02-14T14:35:37;60.22;;;14.07;;
37284;SDS011;23172;53.550;9.964;2024-02-14T14:40:39;52.30;;;15.35;;
37284;SDS011;23172;53.550;9.964;2024-02-14T14:45:41;44.72;;;12.85;;
37284;SDS011;23172;53.550;9.964;2024-02-14T14:50:44;52.92;;;15.18;;
37284;SDS011;23172;53.550;9.964;2024-02-14T14:55:50;81.10;;;17.90;;
37284;SDS011;23172;53.550;9.964;2024-02-14T15:00:54;66.03;;;11.80;;
37284;SDS011;23172;53.550;9.964;2024-02-14T15:06:00;63.10;;;13.60;;
37284;SDS011;23172;53.550;9.964;2024-02-14T15:11:02;71.82;;;18.35;;
37284;SDS011;23172;53.550;9.964;2024-02-14T15:16:05;50.38;;;23.58;;
37284;SDS011;23172;53.550;9.964;2024-02-14T15:21:09;45.47;;;13.70;;
37284;SDS011;23172;53.550;9.964;2024-02-14T15:26:11;53.78;;;16.67;;
37284;SDS011;23172;53.550;9.964;2024-02-14T15:31:15;55.45;;;18.70;;
37284;SDS011;23172;53.550;9.964;2024-02-14T15:36:36;59.80;;;16.77;;
37284;SDS011;23172;53.550;9.964;2024-02-14T15:41:38;62.03;;;18.73;;
37284;SDS011;23172;53.550;9.964;2024-02-14T15:46:40;96.82;;;22.70;;
37284;SDS011;23172;53.550;9.964;2024-02-14T15:51:43;51.15;;;15.73;;
37284;SDS011;23172;53.550;9.964;2024-02-14T15:56:46;59.47;;;18.65;;
37284;SDS011;23172;53.550;9.964;2024-02-14T16:01:48;54.65;;;17.48;;
37284;SDS011;23172;53.550;9.964;2024-02-14T16:06:52;58.63;;;17.08;;
37284;SDS011;23172;53.550;9.964;2024-02-14T16:11:53;77.35;;;25.65;;
37284;SDS011;23172;53.550;9.964;2024-02-14T16:16:55;40.45;;;17.52;;
37284;SDS011;23172;53.550;9.964;2024-02-14T16:21:58;76.28;;;21.20;;
37284;SDS011;23172;53.550;9.964;2024-02-14T16:27:02;67.82;;;23.58;;
37284;SDS011;23172;53.550;9.964;2024-02-14T16:32:05;36.90;;;16.60;;
37284;SDS011;23172;53.550;9.964;2024-02-14T16:37:09;59.00;;;17.92;;
37284;SDS011;23172;53.550;9.964;2024-02-14T16:42:16;56.45;;;17.95;;
37284;SDS011;23172;53.550;9.964;2024-02-14T16:47:19;47.67;;;17.02;;
37284;SDS011;23172;53.550;9.964;2024-02-14T16:52:22;54.30;;;16.92;;
37284;SDS011;23172;53.550;9.964;2024-02-14T16:57:24;38.05;;;16.55;;
37284;SDS011;23172;53.550;9.964;2024-02-14T17:02:26;40.50;;;16.17;;
37284;SDS011;23172;53.550;9.964;2024-02-14T17:07:29;53.33;;;18.05;;
37284;SDS011;23172;53.550;9.964;2024-02-14T17:12:31;51.03;;;14.80;;
37284;SDS011;23172;53.550;9.964;2024-02-14T17:17:33;60.08;;;17.02;;
37284;SDS011;23172;53.550;9.964;2024-02-14T17:22:36;80.15;;;17.45;;
37284;SDS011;23172;53.550;9.964;2024-02-14T17:27:38;29.20;;;14.45;;
37284;SDS011;23172;53.550;9.964;2024-02-14T17:32:40;73.07;;;27.00;;
37284;SDS011;23172;53.550;9.964;2024-02-14T17:37:49;56.95;;;21.33;;
37284;SDS011;23172;53.550;9.964;2024-02-14T17:42:51;50.95;;;16.73;;
37284;SDS011;23172;53.550;9.964;2024-02-14T17:47:53;40.50;;;12.95;;
37284;SDS011;23172;53.550;9.964;2024-02-14T17:52:56;72.60;;;20.17;;
37284;SDS011;23172;53.550;9.964;2024-02-14T17:57:58;41.95;;;13.27;;
37284;SDS011;23172;53.550;9.964;2024-02-14T18:03:02;70.43;;;22.33;;
37284;SDS011;23172;53.550;9.964;2024-02-14T18:08:06;53.65;;;11.55;;
37284;SDS011;23172;53.550;9.964;2024-02-14T18:13:07;76.80;;;16.05;;
37284;SDS011;23172;53.550;9.964;2024-02-14T18:18:10;45.60;;;16.60;;
37284;SDS011;23172;53.550;9.964;2024-02-14T18:23:13;46.70;;;14.40;;
37284;SDS011;23172;53.550;9.964;2024-02-14T18:28:15;55.70;;;15.27;;
37284;SDS011;23172;53.550;9.964;2024-02-14T18:33:16;26.92;;;16.00;;
37284;SDS011;23172;53.550;9.964;2024-02-14T18:38:20;53.63;;;15.85;;
37284;SDS011;23172;53.550;9.964;2024-02-14T18:43:29;64.57;;;16.23;;
37284;SDS011;23172;53.550;9.964;2024-02-14T18:48:32;48.45;;;14.48;;
37284;SDS011;23172;53.550;9.964;2024-02-14T18:53:35;44.88;;;17.23;;
37284;SDS011;23172;53.550;9.964;2024-02-14T18:58:37;60.88;;;17.73;;
37284;SDS011;23172;53.550;9.964;2024-02-14T19:03:39;95.43;;;25.02;;
37284;SDS011;23172;53.550;9.964;2024-02-14T19:08:42;47.60;;;16.55;;
37284;SDS011;23172;53.550;9.964;2024-02-14T19:13:46;69.57;;;16.77;;
37284;SDS011;23172;53.550;9.964;2024-02-14T19:18:48;26.40;;;15.00;;
37284;SDS011;23172;53.550;9.964;2024-02-14T19:23:52;54.65;;;18.35;;
37284;SDS011;23172;53.550;9.964;2024-02-14T19:28:54;64.63;;;22.25;;
37284;SDS011;23172;53.550;9.964;2024-02-14T19:33:56;65.93;;;22.30;;
37284;SDS011;23172;53.550;9.964;2024-02-14T19:38:59;53.42;;;20.20;;
37284;SDS011;23172;53.550;9.964;2024-02-14T19:44:02;54.65;;;21.73;;
37284;SDS011;23172;53.550;9.964;2024-02-14T19:49:04;71.85;;;21.85;;
37284;SDS011;23172;53.550;9.964;2024-02-14T19:54:08;48.00;;;19.38;;
37284;SDS011;23172;53.550;9.964;2024-02-14T19:59:10;92.40;;;25.00;;
37284;SDS011;23172;53.550;9.964;2024-02-14T20:04:12;72.65;;;21.55;;
37284;SDS011;23172;53.550;9.964;2024-02-14T20:09:18;54.40;;;20.60;;
37284;SDS011;23172;53.550;9.964;2024-02-14T20:14:20;35.65;;;18.17;;
37284;SDS011;23172;53.550;9.964;2024-02-14T20:19:22;61.03;;;26.90;;
37284;SDS011;23172;53.550;9.964;2024-02-14T20:24:25;61.45;;;20.75;;
37284;SDS011;23172;53.550;9.964;2024-02-14T20:29:27;48.00;;;20.73;;
37284;SDS011;23172;53.550;9.964;2024-02-14T20:34:29;68.35;;;20.58;;
37284;SDS011;23172;53.550;9.964;2024-02-14T20:39:33;70.65;;;25.70;;
37284;SDS011;23172;53.550;9.964;2024-02-14T20:44:35;77.60;;;29.10;;
37284;SDS011;23172;53.550;9.964;2024-02-14T20:49:37;89.50;;;20.45;;
37284;SDS011;23172;53.550;9.964;2024-02-14T20:54:41;84.40;;;21.83;;
37284;SDS011;23172;53.550;9.964;2024-02-14T20:59:42;51.97;;;21.33;;
37284;SDS011;23172;53.550;9.964;2024-02-14T21:04:44;69.07;;;27.10;;
37284;SDS011;23172;53.550;9.964;2024-02-14T21:09:48;68.45;;;20.55;;
37284;SDS011;23172;53.550;9.964;2024-02-14T21:14:49;62.03;;;22.48;;
37284;SDS011;23172;53.550;9.964;2024-02-14T21:19:51;57.88;;;23.08;;
37284;SDS011;23172;53.550;9.964;2024-02-14T21:24:54;76.63;;;28.30;;
37284;SDS011;23172;53.550;9.964;2024-02-14T21:29:56;60.08;;;19.00;;
37284;SDS011;23172;53.550;9.964;2024-02-14T21:34:59;73.25;;;19.90;;
37284;SDS011;23172;53.550;9.964;2024-02-14T21:40:05;97.28;;;25.90;;
37284;SDS011;23172;53.550;9.964;2024-02-14T21:45:10;52.20;;;18.55;;
37284;SDS011;23172;53.550;9.964;2024-02-14T21:50:12;64.88;;;19.60;;
37284;SDS011;23172;53.550;9.964;2024-02-14T21:55:16;66.88;;;21.23;;
37284;SDS011;23172;53.550;9.964;2024-02-14T22:00:20;86.95;;;19.92;;
37284;SDS011;23172;53.550;9.964;2024-02-14T22:05:22;121.35;;;28.33;;
37284;SDS011;23172;53.550;9.964;2024-02-14T22:10:29;28.45;;;19.75;;
37284;SDS011;23172;53.550;9.964;2024-02-14T22:15:31;50.65;;;20.05;;
37284;SDS011;23172;53.550;9.964;2024-02-14T22:20:33;64.53;;;19.77;;
37284;SDS011;23172;53.550;9.964;2024-02-14T22:25:37;55.20;;;21.13;;
37284;SDS011;23172;53.550;9.964;2024-02-14T22:30:40;32.75;;;16.20;;
37284;SDS011;23172;53.550;9.964;2024-02-14T22:35:42;63.08;;;18.98;;
37284;SDS011;23172;53.550;9.964;2024-02-14T22:40:45;67.35;;;20.38;;
37284;SDS011;23172;53.550;9.964;2024-02-14T22:45:47;41.42;;;17.80;;
37284;SDS011;23172;53.550;9.964;2024-02-14T22:50:49;64.53;;;17.27;;
37284;SDS011;23172;53.550;9.964;2024-02-14T22:55:53;46.05;;;21.17;;
37284;SDS011;23172;53.550;9.964;2024-02-14T23:00:55;60.65;;;21.45;;
37284;SDS011;23172;53.550;9.964;2024-02-14T23:05:57;70.97;;;21.58;;
37284;SDS011;23172;53.550;9.964;2024-02-14T23:11:01;50.22;;;19.73;;
37284;SDS011;23172;53.550;9.964;2024-02-14T23:16:03;54.25;;;19.52;;
37284;SDS011;23172;53.550;9.964;2024-02-14T23:21:06;49.85;;;16.42;;
37284;SDS011;23172;53.550;9.964;2024-02-14T23:26:09;69.30;;;16.58;;
37284;SDS011;23172;53.550;9.964;2024-02-14T23:31:11;40.10;;;20.00;;
37284;SDS011;23172;53.550;9.964;2024-02-14T23:36:15;65.75;;;18.83;;
37284;SDS011;23172;53.550;9.964;2024-02-14T23:41:19;62.55;;;16.65;;
37284;SDS011;23172;53.550;9.964;2024-02-14T23:46:21;46.35;;;18.15;;
37284;SDS011;23172;53.550;9.964;2024-02-14T23:51:23;56.10;;;18.55;;
37284;SDS011;23172;53.550;9.964;2024-02-14T23:56:27;40.85;;;16.88;;
